Terminal Aerodrome Forecast
Issued by NWS

Home | Current Version | Previous Version | Text Only | Print | Product List | Glossary On
Versions: 1 2 3 4 5 6 7 8 9 10 11 12 13 14 15 16 17 18 19 20 21 22 23 24 25 26 27 28 29 30 31 32 33 34 35 36 37 38
000
FTAK31 PAFA 281120
TAFAFA
TAF
PAFA 281120Z 2812/2918 VRB03KT 2SM -RA BR BKN040 OVC060
     FM281300 VRB03KT 2SM BR VCSH SCT005 BKN015 OVC040
     FM281700 00000KT P6SM VCSH SCT015 BKN050 OVC100
     FM282100 VRB03KT P6SM -SHRA VCTS BKN050CB OVC100
     FM290600 VRB03KT P6SM VCSH SCT050 BKN100=

USA.gov is the U.S. government's official web portal to all federal, state and local government web resources and services.